Time;durP1;ratioP1;P1;durP2;ratioP2;P2;SDS_P1;SDS_P2;PMS_P1;PMS_P2;Temp;Humidity;BMP_temperature;BMP_pressure;BME280_temperature;BME280_humidity;BME280_pressure;Samples;Min_cycle;Max_cycle;Signal;HPM_P1;HPM_P2
2021/01/19 00:00:15;;;;;;;4.90;3.87;;;;;;;-9.35;70.48;98376.33;1678855;84;21174;-71
2021/01/19 00:02:45;;;;;;;9.70;5.70;;;;;;;-9.37;70.68;98378.00;1642194;85;21617;-71
2021/01/19 00:05:16;;;;;;;3.17;2.83;;;;;;;-9.42;70.36;98382.25;1638554;86;21186;-70
2021/01/19 00:07:44;;;;;;;4.40;3.67;;;;;;;-9.46;70.25;98384.38;1638266;86;21249;-70
2021/01/19 00:10:13;;;;;;;11.90;5.33;;;;;;;-9.49;70.60;98394.44;1638366;86;21226;-71
2021/01/19 00:12:41;;;;;;;3.80;3.07;;;;;;;-9.57;71.10;98394.09;1638545;86;21237;-71
2021/01/19 00:15:10;;;;;;;6.27;3.47;;;;;;;-9.61;70.82;98399.13;1638226;86;21236;-66
2021/01/19 00:17:38;;;;;;;4.00;3.60;;;;;;;-9.61;70.77;98399.57;1666412;85;21191;-65
2021/01/19 00:20:33;;;;;;;2.63;2.50;;;;;;;-9.62;70.92;98397.48;1638131;86;21189;-72
2021/01/19 00:23:01;;;;;;;3.67;2.97;;;;;;;-9.65;71.06;98397.47;1646709;86;21323;-73
2021/01/19 00:25:29;;;;;;;5.53;4.33;;;;;;;-9.66;70.90;98400.02;1646908;86;21198;-72
2021/01/19 00:27:58;;;;;;;3.87;3.57;;;;;;;-9.68;70.34;98406.71;1646836;86;21193;-72
2021/01/19 00:30:26;;;;;;;4.50;4.10;;;;;;;-9.72;69.71;98408.83;1646912;86;22005;-66
2021/01/19 00:32:55;;;;;;;3.57;3.23;;;;;;;-9.78;69.42;98408.45;1646923;86;21257;-63
2021/01/19 00:35:23;;;;;;;3.50;3.20;;;;;;;-9.81;69.34;98405.13;1646648;86;21263;-66
2021/01/19 00:37:51;;;;;;;6.20;5.80;;;;;;;-9.85;69.22;98406.83;1646773;86;21277;-71
2021/01/19 00:40:19;;;;;;;4.63;3.70;;;;;;;-9.89;69.11;98411.45;1646978;86;21248;-71
2021/01/19 00:42:48;;;;;;;4.53;3.83;;;;;;;-9.91;69.01;98413.54;1646937;86;21261;-70
2021/01/19 00:45:18;;;;;;;3.63;2.87;;;;;;;-9.94;69.22;98409.80;1647027;86;21348;-71
2021/01/19 00:47:46;;;;;;;4.07;2.40;;;;;;;-9.96;69.16;98412.75;1647045;86;21581;-72
2021/01/19 00:50:15;;;;;;;6.10;2.53;;;;;;;-9.99;69.11;98414.00;1646951;86;21636;-70
2021/01/19 00:52:44;;;;;;;2.70;2.50;;;;;;;-10.04;68.87;98412.78;1646641;86;21158;-70
2021/01/19 00:55:15;;;;;;;8.07;3.73;;;;;;;-10.06;68.93;98412.36;1646629;86;21174;-65
2021/01/19 00:57:45;;;;;;;3.23;3.03;;;;;;;-10.08;69.67;98415.31;1646595;86;21319;-65
2021/01/19 01:00:24;;;;;;;2.87;2.67;;;;;;;-10.15;69.83;98414.09;1646561;86;21244;-68
2021/01/19 01:02:54;;;;;;;2.83;2.60;;;;;;;-10.16;69.62;98407.43;1646590;86;21209;-70
2021/01/19 01:05:22;;;;;;;5.07;4.57;;;;;;;-10.17;69.74;98413.28;1646902;86;21225;-65
2021/01/19 01:07:51;;;;;;;1.57;1.47;;;;;;;-10.16;69.87;98424.17;1646979;86;21268;-65
2021/01/19 01:10:19;;;;;;;4.33;3.73;;;;;;;-10.18;69.79;98424.16;1646621;86;21237;-66
2021/01/19 01:12:47;;;;;;;3.50;2.23;;;;;;;-10.20;69.61;98420.00;1646790;86;21233;-65
2021/01/19 01:15:23;;;;;;;2.70;1.30;;;;;;;-10.24;69.74;98419.17;1646700;86;21230;-67
2021/01/19 01:17:52;;;;;;;2.33;1.33;;;;;;;-10.31;70.02;98419.20;1645980;86;21224;-65
2021/01/19 01:20:20;;;;;;;2.13;1.90;;;;;;;-10.35;69.03;98420.89;1646936;86;21268;-65
2021/01/19 01:22:48;;;;;;;3.72;3.02;;;;;;;-10.39;68.80;98422.16;1646573;86;21255;-70
2021/01/19 01:25:18;;;;;;;5.43;2.80;;;;;;;-10.94;68.42;98338.66;1669529;84;21231;-72
2021/01/19 01:27:48;;;;;;;1.93;1.83;;;;;;;-10.49;68.56;98428.86;1669379;84;21195;-72
2021/01/19 01:30:40;;;;;;;1.80;1.70;;;;;;;-10.54;69.24;98417.99;1669627;84;21194;-72
2021/01/19 01:33:08;;;;;;;2.60;2.20;;;;;;;-10.58;69.46;98416.33;1634557;87;21199;-71
2021/01/19 01:35:36;;;;;;;3.43;3.13;;;;;;;-10.57;69.44;98424.70;1639280;87;21191;-70
2021/01/19 01:38:06;;;;;;;3.80;3.50;;;;;;;-10.57;69.44;98419.27;1672294;84;21149;-71
2021/01/19 01:40:36;;;;;;;5.30;2.80;;;;;;;-10.59;69.28;98417.19;1672291;84;21177;-71
2021/01/19 01:43:14;;;;;;;4.70;3.73;;;;;;;-10.63;68.85;98418.88;1672250;84;21905;-70
2021/01/19 01:45:43;;;;;;;2.57;2.47;;;;;;;-10.69;68.41;98424.30;1639778;86;21364;-69
2021/01/19 01:48:12;;;;;;;5.17;4.77;;;;;;;-10.76;68.11;98420.98;1639858;86;21389;-70
2021/01/19 01:50:41;;;;;;;2.93;2.50;;;;;;;-10.82;68.06;98418.91;1640031;86;21231;-70
2021/01/19 01:53:09;;;;;;;5.40;4.13;;;;;;;-10.87;68.17;98417.66;1640467;86;21215;-69
2021/01/19 01:55:38;;;;;;;4.80;4.27;;;;;;;-10.91;68.16;98425.18;1672763;84;21145;-69
2021/01/19 01:58:06;;;;;;;13.23;3.30;;;;;;;-10.94;68.37;98412.65;1672474;85;21189;-70
2021/01/19 02:00:35;;;;;;;5.13;3.07;;;;;;;-10.99;68.84;98416.41;1639509;86;21184;-69
2021/01/19 02:03:04;;;;;;;2.20;1.93;;;;;;;-10.98;68.91;98423.11;1639921;86;21199;-70
2021/01/19 02:05:32;;;;;;;6.23;3.87;;;;;;;-10.93;69.18;98418.09;1639556;86;21181;-70
2021/01/19 02:09:00;;;;;;;3.57;2.10;;;;;;;-10.89;69.03;98418.50;1639500;86;21343;-70
2021/01/19 02:11:48;;;;;;;4.45;2.92;;;;;;;-10.86;68.98;98418.08;1528758;92;21313;-70
2021/01/19 02:14:37;;;;;;;;;;;;;;;-10.75;68.89;98411.78;1782270;79;23057;-71
2021/01/19 02:17:36;;;;;;;1.60;1.53;;;;;;;-10.80;68.88;98414.30;1753006;82;20229;-70
2021/01/19 02:20:38;;;;;;;2.70;2.30;;;;;;;-10.74;68.65;98419.73;1753000;82;21246;-64
2021/01/19 02:23:25;;;;;;;2.73;2.50;;;;;;;-10.73;68.37;98411.34;1729011;82;21203;-65
2021/01/19 02:26:05;;;;;;;;;;;;;;;-10.70;68.39;98400.07;1755428;82;21129;-65
2021/01/19 02:28:58;;;;;;;2.03;1.93;;;;;;;-10.62;68.31;98408.42;1752618;82;20193;-66
2021/01/19 02:31:49;;;;;;;4.83;2.17;;;;;;;-10.55;68.42;98410.48;1643957;87;21636;-64
2021/01/19 02:34:26;;;;;;;2.80;2.27;;;;;;;-10.49;68.00;98406.69;1643866;87;21662;-64
2021/01/19 02:37:06;;;;;;;;;;;;;;;-10.46;67.79;98421.31;1646356;87;21215;-64
2021/01/19 02:40:05;;;;;;;1.93;1.77;;;;;;;-10.44;67.68;98417.14;1644032;87;20146;-64
2021/01/19 02:43:10;;;;;;;3.07;2.83;;;;;;;-10.42;67.78;98423.40;1673789;84;21203;-65
2021/01/19 02:45:46;;;;;;;2.37;1.90;;;;;;;-10.46;68.17;98411.70;1674100;85;21226;-64
2021/01/19 02:48:16;;;;;;;0.93;0.82;;;;;;;-10.44;67.95;98407.52;1674270;84;21630;-71
2021/01/19 02:50:44;;;;;;;1.53;1.00;;;;;;;-10.41;67.85;98404.99;1673817;84;21173;-71
2021/01/19 02:53:14;;;;;;;2.13;1.80;;;;;;;-10.37;67.80;98402.89;1674016;86;21254;-71
2021/01/19 02:55:45;;;;;;;3.33;2.60;;;;;;;-10.33;67.92;98406.65;1673930;84;21238;-71
2021/01/19 03:01:29;;;;;;;3.13;2.93;;;;;;;-10.23;68.22;98404.95;1673768;86;21169;-71
2021/01/19 03:03:59;;;;;;;3.35;3.08;;;;;;;-10.16;68.21;98399.89;1668644;86;21240;-71
2021/01/19 03:06:31;;;;;;;3.33;2.63;;;;;;;-10.11;68.07;98390.61;1668416;86;21737;-70
2021/01/19 03:09:03;;;;;;;6.23;2.23;;;;;;;-10.04;68.04;98389.34;1668440;86;21339;-70
2021/01/19 03:11:32;;;;;;;2.77;2.57;;;;;;;-9.98;67.97;98390.14;1668505;85;21561;-70
2021/01/19 03:14:02;;;;;;;2.43;2.33;;;;;;;-9.91;67.68;98386.74;1668410;86;21203;-71
2021/01/19 03:16:30;;;;;;;3.60;3.30;;;;;;;-9.86;67.25;98379.19;1668391;86;21766;-70
2021/01/19 03:18:58;;;;;;;2.87;2.67;;;;;;;-9.82;67.09;98382.09;1668632;86;21219;-70
2021/01/19 03:21:26;;;;;;;7.97;3.50;;;;;;;-9.79;66.99;98389.61;1668756;86;21254;-70
2021/01/19 03:23:54;;;;;;;2.03;1.93;;;;;;;-9.77;66.94;98386.69;1668482;86;21203;-70
2021/01/19 03:26:22;;;;;;;2.43;2.23;;;;;;;-9.78;66.46;98383.33;1668049;86;21803;-70
2021/01/19 03:28:50;;;;;;;2.77;2.20;;;;;;;-9.79;66.45;98376.63;1667936;86;21515;-69
2021/01/19 03:31:19;;;;;;;3.27;2.10;;;;;;;-9.91;66.33;98357.85;1667959;86;21671;-68
2021/01/19 03:33:47;;;;;;;3.67;2.87;;;;;;;-9.74;66.25;98371.58;1667937;86;21666;-64
2021/01/19 03:36:15;;;;;;;1.83;1.73;;;;;;;-9.73;66.30;98370.74;1667825;85;21219;-65
2021/01/19 03:38:43;;;;;;;4.10;3.30;;;;;;;-9.73;66.52;98368.23;1667768;86;21215;-65
2021/01/19 03:41:14;;;;;;;8.90;4.00;;;;;;;-9.70;66.55;98367.78;1667990;86;21214;-65
2021/01/19 03:43:43;;;;;;;6.40;3.37;;;;;;;-9.64;66.48;98367.73;1668124;86;21174;-64
2021/01/19 03:46:11;;;;;;;2.57;2.43;;;;;;;-9.59;66.44;98364.35;1667836;86;21172;-69
2021/01/19 03:48:39;;;;;;;5.97;2.47;;;;;;;-9.55;66.46;98364.33;1668318;86;21537;-64
2021/01/19 03:51:07;;;;;;;2.73;2.53;;;;;;;-9.50;66.31;98355.08;1668034;86;21175;-65
2021/01/19 03:53:36;;;;;;;2.20;2.10;;;;;;;-9.48;66.21;98366.36;1668071;86;21560;-65
2021/01/19 03:56:05;;;;;;;1.77;1.67;;;;;;;-9.45;66.12;98362.14;1667800;86;21178;-64
2021/01/19 03:58:33;;;;;;;2.67;2.42;;;;;;;-9.42;65.96;98363.40;1667732;86;21606;-64
2021/01/19 04:01:23;;;;;;;3.43;3.00;;;;;;;-9.40;65.78;98368.39;1654944;86;21199;-64
2021/01/19 04:03:51;;;;;;;7.00;3.08;;;;;;;-9.40;65.75;98362.95;1677179;85;21143;-64
2021/01/19 04:06:20;;;;;;;4.03;3.40;;;;;;;-9.37;65.93;98365.44;1660428;86;21172;-64
2021/01/19 04:08:48;;;;;;;1.57;1.47;;;;;;;-9.33;65.74;98361.21;1644253;86;21219;-64
2021/01/19 04:11:16;;;;;;;4.67;3.43;;;;;;;-9.33;65.54;98367.08;1639351;86;21204;-64
2021/01/19 04:13:45;;;;;;;2.43;2.23;;;;;;;-9.33;65.55;98363.30;1636816;86;21200;-64
2021/01/19 04:16:15;;;;;;;2.07;1.73;;;;;;;-9.31;65.73;98362.05;1639165;87;21623;-64
2021/01/19 04:18:43;;;;;;;2.03;1.93;;;;;;;-9.29;65.84;98364.11;1639203;86;21215;-70
2021/01/19 04:21:12;;;;;;;3.37;2.35;;;;;;;-9.25;66.03;98369.53;1639415;86;21243;-71
2021/01/19 04:23:40;;;;;;;2.93;2.63;;;;;;;-9.22;66.12;98364.50;1639427;86;21227;-70
2021/01/19 04:26:08;;;;;;;5.83;2.70;;;;;;;-9.22;66.12;98358.21;1639451;86;21236;-69
2021/01/19 04:28:48;;;;;;;7.03;2.70;;;;;;;-9.31;66.80;98354.08;1699008;83;21192;-70
2021/01/19 04:31:16;;;;;;;3.60;3.27;;;;;;;-9.33;66.80;98348.22;1747041;81;21655;-69
2021/01/19 04:33:44;;;;;;;2.00;1.85;;;;;;;-9.28;67.82;98344.41;1698466;84;21140;-70
2021/01/19 04:36:13;;;;;;;3.75;1.72;;;;;;;-9.25;67.59;98347.73;1746748;82;21120;-64
2021/01/19 04:38:41;;;;;;;3.50;1.95;;;;;;;-9.17;67.14;98342.63;1698213;84;21163;-64
2021/01/19 04:41:11;;;;;;;2.22;2.02;;;;;;;-9.21;66.67;98338.05;1746563;82;21299;-64
2021/01/19 04:43:40;;;;;;;2.37;2.25;;;;;;;-9.16;66.74;98338.02;1698129;84;21191;-68
2021/01/19 04:46:09;;;;;;;17.77;4.00;;;;;;;-9.09;66.77;98340.05;1746481;82;21183;-67
2021/01/19 04:48:42;;;;;;;3.03;2.33;;;;;;;-9.03;66.68;98337.48;1698136;84;21179;-67
2021/01/19 04:51:18;;;;;;;6.55;2.17;;;;;;;-9.00;66.44;98339.55;1746457;82;21168;-69
2021/01/19 04:54:12;;;;;;;10.80;2.45;;;;;;;-8.98;66.41;98345.80;1698406;83;21227;-70
2021/01/19 04:56:49;;;;;;;10.13;3.15;;;;;;;-8.93;66.43;98342.41;1651622;87;21172;-69
2021/01/19 04:59:21;;;;;;;2.67;2.47;;;;;;;-8.93;66.11;98347.44;1651425;87;21526;-64
2021/01/19 05:02:12;;;;;;;4.77;4.37;;;;;;;-8.89;66.08;98349.08;1651427;87;21186;-63
2021/01/19 05:04:47;;;;;;;6.40;3.85;;;;;;;-8.91;66.13;98351.21;1649940;87;21205;-65
2021/01/19 05:07:34;;;;;;;3.00;1.98;;;;;;;-8.95;66.48;98352.93;1651448;87;21621;-65
2021/01/19 05:10:09;;;;;;;0.88;0.88;;;;;;;-9.10;66.52;98348.02;1651551;87;21233;-72
2021/01/19 05:12:45;;;;;;;1.25;1.12;;;;;;;-9.07;66.89;98349.27;1651737;87;21257;-71
2021/01/19 05:15:15;;;;;;;3.42;3.12;;;;;;;-8.97;66.91;98356.29;1651409;87;21606;-65
2021/01/19 05:17:44;;;;;;;1.62;1.17;;;;;;;-8.90;66.89;98349.08;1651373;87;21149;-65
2021/01/19 05:20:13;;;;;;;1.27;1.17;;;;;;;-8.83;66.64;98356.55;1651745;86;21261;-67
2021/01/19 05:22:41;;;;;;;2.20;2.10;;;;;;;-8.78;66.37;98359.03;1652269;87;21253;-66
2021/01/19 05:25:10;;;;;;;1.32;1.22;;;;;;;-8.72;66.34;98361.50;1651947;87;21237;-72
2021/01/19 05:27:39;;;;;;;2.60;1.47;;;;;;;-8.68;66.15;98366.91;1651790;87;21653;-70
2021/01/19 05:30:08;;;;;;;0.97;0.87;;;;;;;-8.62;66.06;98364.73;1651333;87;21618;-71
2021/01/19 05:32:43;;;;;;;9.03;1.77;;;;;;;-9.07;65.98;98293.08;1624839;88;21146;-72
2021/01/19 05:35:21;;;;;;;7.95;2.42;;;;;;;-8.55;65.98;98370.95;1624813;88;21768;-71
2021/01/19 05:37:59;;;;;;;2.62;2.42;;;;;;;-8.51;65.84;98365.03;1633710;86;21178;-72
2021/01/19 05:40:29;;;;;;;2.72;2.45;;;;;;;-8.54;65.91;98369.27;1651610;86;21177;-71
2021/01/19 05:42:59;;;;;;;3.27;2.83;;;;;;;-8.50;65.95;98365.45;1651532;86;21213;-72
2021/01/19 05:45:27;;;;;;;4.15;3.85;;;;;;;-8.45;65.96;98364.98;1650130;87;21189;-71
2021/01/19 05:47:56;;;;;;;2.15;1.95;;;;;;;-8.51;65.95;98350.34;1631795;87;21142;-71
2021/01/19 05:50:25;;;;;;;1.57;1.47;;;;;;;-8.39;65.78;98372.45;1633546;87;21189;-73
2021/01/19 05:52:56;;;;;;;2.50;1.20;;;;;;;-8.34;65.70;98371.14;1643509;87;21196;-73
2021/01/19 05:55:27;;;;;;;1.72;1.62;;;;;;;-8.31;65.77;98367.33;1657917;86;21588;-72
2021/01/19 05:57:57;;;;;;;3.58;1.95;;;;;;;-8.33;65.50;98360.22;1649937;85;21227;-72
2021/01/19 06:00:28;;;;;;;3.12;2.80;;;;;;;-8.33;65.63;98361.06;1673604;85;21204;-72
2021/01/19 06:02:59;;;;;;;7.22;3.83;;;;;;;-8.32;65.76;98358.93;1652778;86;21141;-72
2021/01/19 06:05:31;;;;;;;2.05;1.95;;;;;;;-8.31;65.84;98349.27;1626631;86;21193;-71
2021/01/19 06:08:02;;;;;;;1.07;1.07;;;;;;;-8.33;65.62;98353.92;1636104;86;21211;-72
2021/01/19 06:10:31;;;;;;;4.35;3.37;;;;;;;-8.29;65.90;98360.59;1648603;87;21155;-70
2021/01/19 06:13:01;;;;;;;1.52;1.45;;;;;;;-8.23;65.91;98362.58;1622910;88;21200;-70
2021/01/19 06:15:30;;;;;;;2.72;2.47;;;;;;;-8.18;65.74;98359.58;1649420;86;21200;-71
2021/01/19 06:18:00;;;;;;;3.25;2.95;;;;;;;-8.16;65.78;98358.28;1621621;88;21208;-71
2021/01/19 06:20:28;;;;;;;5.10;2.52;;;;;;;-8.12;65.63;98363.69;1621942;88;21164;-71
2021/01/19 06:23:07;;;;;;;2.77;2.58;;;;;;;-8.07;65.70;98359.86;1645267;86;21172;-71
2021/01/19 06:25:35;;;;;;;17.15;2.60;;;;;;;-8.02;65.70;98362.73;1655846;85;21173;-71
2021/01/19 06:28:11;;;;;;;3.35;3.10;;;;;;;-7.96;65.51;98359.28;1661340;86;21176;-72
2021/01/19 06:30:39;;;;;;;4.00;3.80;;;;;;;-7.90;65.37;98365.10;1663946;86;21315;-71
2021/01/19 06:33:10;;;;;;;3.00;2.20;;;;;;;-7.84;65.30;98362.91;1661067;86;21302;-71
2021/01/19 06:35:42;;;;;;;3.33;3.02;;;;;;;-7.81;64.86;98359.08;1661023;85;21187;-72
2021/01/19 06:38:10;;;;;;;3.95;2.33;;;;;;;-7.78;65.02;98367.42;1664136;86;21191;-71
2021/01/19 06:40:42;;;;;;;2.42;2.22;;;;;;;-7.74;65.06;98358.97;1663786;86;21730;-65
2021/01/19 06:43:14;;;;;;;7.47;3.15;;;;;;;-7.71;65.58;98351.80;1676665;85;21573;-65
2021/01/19 06:45:47;;;;;;;1.90;1.42;;;;;;;-7.62;65.62;98366.78;1676603;85;21753;-65
2021/01/19 06:48:16;;;;;;;2.60;2.45;;;;;;;-7.53;65.36;98361.61;1676537;85;21216;-65
2021/01/19 06:50:49;;;;;;;3.27;1.80;;;;;;;-7.47;64.79;98363.22;1676473;85;21228;-65
2021/01/19 06:53:27;;;;;;;3.47;3.17;;;;;;;-7.37;65.06;98359.69;1653161;85;21157;-66
2021/01/19 06:56:22;;;;;;;2.85;2.00;;;;;;;-7.27;65.02;98359.52;1665207;85;21626;-65
2021/01/19 06:58:57;;;;;;;2.05;1.87;;;;;;;-7.39;64.41;98348.80;1642774;86;21186;-66
2021/01/19 07:01:28;;;;;;;1.72;1.22;;;;;;;-7.28;64.83;98346.94;1666274;85;21222;-65
2021/01/19 07:04:23;;;;;;;4.67;3.52;;;;;;;-7.21;64.60;98349.34;1665860;85;21163;-65
2021/01/19 07:07:13;;;;;;;2.75;2.55;;;;;;;-7.08;65.40;98353.73;1666174;86;21123;-65
2021/01/19 07:10:05;;;;;;;10.63;5.70;;;;;;;-6.99;64.80;98348.53;1618011;87;21612;-66
2021/01/19 07:13:04;;;;;;;3.60;3.12;;;;;;;-6.87;65.14;98341.17;1655141;86;21621;-64
2021/01/19 07:16:04;;;;;;;4.20;3.47;;;;;;;-6.76;65.35;98348.13;1655161;86;21641;-64
2021/01/19 07:19:02;;;;;;;3.55;1.67;;;;;;;-6.68;65.25;98355.13;1655245;86;21215;-61
2021/01/19 07:22:15;;;;;;;3.90;3.37;;;;;;;-6.85;63.47;98355.88;1655048;86;21620;-60
2021/01/19 07:24:49;;;;;;;1.22;0.78;;;;;;;-6.82;64.16;98355.40;1656727;86;21175;-70
2021/01/19 07:27:20;;;;;;;3.22;1.47;;;;;;;-6.87;64.43;98353.80;1664388;84;21185;-68
2021/01/19 07:29:48;;;;;;;1.55;1.35;;;;;;;-6.80;64.31;98347.77;1695273;84;21218;-68
2021/01/19 07:32:41;;;;;;;1.95;1.85;;;;;;;-6.84;63.91;98349.52;1695451;84;22183;-69
2021/01/19 07:35:33;;;;;;;0.40;0.40;;;;;;;-6.78;64.24;98349.43;1688201;83;21651;-71
2021/01/19 07:38:03;;;;;;;3.67;1.60;;;;;;;-7.00;64.88;98351.10;1647678;85;21648;-70
2021/01/19 07:40:32;;;;;;;4.95;1.75;;;;;;;-7.29;70.54;98338.95;1646741;86;21376;-70
2021/01/19 07:43:00;;;;;;;2.83;2.40;;;;;;;-7.14;68.03;98343.75;1655629;86;21205;-70
2021/01/19 07:45:33;;;;;;;2.45;2.27;;;;;;;-6.99;67.64;98348.95;1655726;86;21205;-73
2021/01/19 07:48:08;;;;;;;0.60;0.60;;;;;;;-7.29;67.99;98354.09;1656020;86;21158;-70
2021/01/19 07:50:45;;;;;;;0.75;0.75;;;;;;;-7.10;66.98;98352.09;1655689;86;21229;-66
2021/01/19 07:53:13;;;;;;;2.70;1.30;;;;;;;-6.93;67.11;98352.66;1655651;86;21197;-65
2021/01/19 07:55:47;;;;;;;1.15;1.00;;;;;;;-6.71;66.77;98348.88;1655256;86;21213;-65
2021/01/19 07:58:21;;;;;;;2.92;1.10;;;;;;;-6.58;65.52;98346.54;1655704;86;21202;-72
2021/01/19 08:00:58;;;;;;;4.97;2.45;;;;;;;-6.28;66.24;98350.16;1655612;87;21187;-71
2021/01/19 08:03:29;;;;;;;0.72;0.72;;;;;;;-6.17;64.21;98345.72;1655781;86;21606;-72
2021/01/19 08:06:11;;;;;;;3.22;2.87;;;;;;;-5.97;64.54;98356.68;1655687;87;21189;-72
2021/01/19 08:08:39;;;;;;;3.72;3.10;;;;;;;-5.86;63.55;98354.75;1655539;87;21201;-72
2021/01/19 08:11:20;;;;;;;4.92;4.53;;;;;;;-5.75;63.70;98340.13;1655879;86;21225;-71
2021/01/19 08:14:00;;;;;;;6.33;3.87;;;;;;;-5.79;63.94;98353.28;1655850;85;21173;-73
2021/01/19 08:16:36;;;;;;;3.72;2.00;;;;;;;-5.45;63.01;98353.81;1655750;87;21203;-72
2021/01/19 08:19:31;;;;;;;5.95;3.20;;;;;;;-5.25;63.14;98350.81;1656056;87;21250;-73
2021/01/19 08:22:02;;;;;;;;;;;;;;;-5.05;63.01;98354.94;1675212;84;21151;-70
2021/01/19 08:24:30;;;;;;;4.37;2.75;;;;;;;-4.90;62.30;98350.31;1672864;86;20427;-66
2021/01/19 08:26:59;;;;;;;7.45;4.70;;;;;;;-4.61;63.36;98357.61;1639826;86;21580;-64
2021/01/19 08:29:30;;;;;;;3.90;3.02;;;;;;;-4.37;61.78;98360.77;1660962;85;21587;-65
2021/01/19 08:32:01;;;;;;;5.03;2.72;;;;;;;-4.21;61.86;98354.41;1672714;86;21182;-65
2021/01/19 08:34:32;;;;;;;5.58;4.75;;;;;;;-4.02;61.42;98359.78;1639855;86;21152;-64
2021/01/19 08:37:03;;;;;;;9.73;6.37;;;;;;;-4.08;60.41;98363.31;1661237;86;21611;-64
2021/01/19 08:39:31;;;;;;;8.30;5.30;;;;;;;-4.18;60.87;98358.55;1672672;85;21155;-65
2021/01/19 08:42:01;;;;;;;12.70;8.93;;;;;;;-4.23;61.78;98348.53;1672584;85;21131;-66
2021/01/19 08:44:31;;;;;;;10.48;5.80;;;;;;;-4.60;64.34;98347.45;1672492;84;21128;-67
2021/01/19 08:47:02;;;;;;;12.10;6.58;;;;;;;-4.41;63.21;98350.31;1672108;86;21663;-65
2021/01/19 08:49:37;;;;;;;5.67;4.55;;;;;;;-4.41;63.08;98349.88;1639408;86;21186;-65
2021/01/19 08:52:06;;;;;;;11.78;7.35;;;;;;;-4.39;63.00;98353.63;1661642;86;21175;-64
2021/01/19 08:54:35;;;;;;;6.50;4.62;;;;;;;-4.65;63.24;98348.00;1672655;86;21591;-70
2021/01/19 08:57:04;;;;;;;6.28;2.92;;;;;;;-4.45;63.02;98346.20;1652636;86;21194;-65
2021/01/19 08:59:34;;;;;;;5.10;3.45;;;;;;;-4.08;63.05;98339.22;1639069;86;21195;-65
2021/01/19 09:02:09;;;;;;;7.55;4.97;;;;;;;-3.79;62.36;98336.27;1661171;86;21231;-65
2021/01/19 09:04:41;;;;;;;9.60;5.45;;;;;;;-3.56;61.71;98339.78;1672726;85;21214;-65
2021/01/19 09:07:12;;;;;;;6.92;5.80;;;;;;;-3.38;60.93;98340.91;1672813;86;21179;-65
2021/01/19 09:09:47;;;;;;;5.10;4.67;;;;;;;-3.37;60.98;98348.48;1639894;86;21622;-70
2021/01/19 09:12:39;;;;;;;11.53;8.13;;;;;;;-3.67;61.13;98345.63;1660737;86;21160;-70
2021/01/19 09:15:29;;;;;;;8.68;7.42;;;;;;;-3.63;61.58;98348.91;1617580;88;21219;-72
2021/01/19 09:17:59;;;;;;;11.15;6.58;;;;;;;-4.05;63.18;98343.39;1644599;86;21191;-72
2021/01/19 09:20:27;;;;;;;7.08;4.87;;;;;;;-4.01;63.02;98340.70;1677806;84;21158;-65
2021/01/19 09:23:09;;;;;;;7.17;4.47;;;;;;;-3.99;63.51;98338.97;1677491;85;21199;-65
2021/01/19 09:25:38;;;;;;;10.15;6.00;;;;;;;-4.10;63.28;98336.34;1677460;84;21135;-68
2021/01/19 09:28:07;;;;;;;14.23;7.42;;;;;;;-4.05;63.95;98326.91;1677685;85;21195;-66
2021/01/19 09:30:36;;;;;;;10.18;6.50;;;;;;;-4.20;64.61;98324.34;1677724;85;21600;-66
2021/01/19 09:33:08;;;;;;;11.30;5.40;;;;;;;-4.17;64.12;98329.36;1677651;85;21166;-65
2021/01/19 09:35:39;;;;;;;5.72;5.12;;;;;;;-3.96;64.17;98331.25;1673311;85;21224;-65
2021/01/19 09:38:24;;;;;;;7.65;3.90;;;;;;;-3.67;63.93;98330.41;1676137;85;21509;-67
2021/01/19 09:41:04;;;;;;;14.03;8.48;;;;;;;-3.59;62.94;98325.92;1679851;85;21174;-66
2021/01/19 09:43:33;;;;;;;11.28;7.67;;;;;;;-3.61;63.99;98325.13;1679841;84;21325;-71
2021/01/19 09:46:07;;;;;;;8.20;5.90;;;;;;;-3.43;63.85;98320.77;1679743;84;21191;-70
2021/01/19 09:48:37;;;;;;;9.58;5.60;;;;;;;-3.21;63.09;98325.14;1629692;86;21265;-69
2021/01/19 09:51:07;;;;;;;8.73;5.30;;;;;;;-3.29;63.98;98320.31;1630921;85;21274;-69
2021/01/19 09:53:36;;;;;;;9.88;5.92;;;;;;;-3.33;63.95;98320.02;1599501;88;21199;-71
2021/01/19 09:56:16;;;;;;;10.35;7.35;;;;;;;-3.45;64.77;98321.23;1696524;82;21457;-71
2021/01/19 09:58:44;;;;;;;9.50;5.97;;;;;;;-3.45;64.98;98320.41;1691904;84;21199;-70
2021/01/19 10:01:23;;;;;;;9.05;5.67;;;;;;;-3.68;66.54;98298.28;1637927;87;21281;-70
2021/01/19 10:03:52;;;;;;;5.95;4.67;;;;;;;-3.71;67.69;98308.96;1607366;88;21631;-65
2021/01/19 10:06:25;;;;;;;6.12;3.85;;;;;;;-3.76;68.12;98313.34;1613251;86;21217;-65
2021/01/19 10:08:54;;;;;;;8.90;4.30;;;;;;;-3.64;68.37;98304.92;1630999;86;21580;-69
2021/01/19 10:11:31;;;;;;;5.85;4.62;;;;;;;-3.60;69.10;98298.88;1627649;87;21678;-71
2021/01/19 10:14:19;;;;;;;4.58;2.85;;;;;;;-3.74;68.87;98298.48;1628160;87;21233;-70
2021/01/19 10:16:49;;;;;;;12.93;6.67;;;;;;;-3.54;69.17;98292.32;1628101;87;21622;-71
2021/01/19 10:19:23;;;;;;;10.15;6.97;;;;;;;-3.30;68.19;98289.88;1628252;87;21222;-72
2021/01/19 10:21:54;;;;;;;8.70;5.62;;;;;;;-3.33;68.71;98290.81;1628409;87;21202;-72
2021/01/19 10:24:24;;;;;;;9.93;5.72;;;;;;;-3.49;68.59;98282.86;1635727;86;21156;-72
2021/01/19 10:27:08;;;;;;;13.22;4.95;;;;;;;-3.36;69.61;98283.30;1628156;88;21157;-71
2021/01/19 10:29:41;;;;;;;7.65;5.10;;;;;;;-3.51;69.72;98287.61;1627264;87;21224;-70
2021/01/19 10:32:12;;;;;;;4.78;3.05;;;;;;;-3.76;70.71;98287.96;1618543;87;21262;-70
2021/01/19 10:34:47;;;;;;;5.65;4.05;;;;;;;-3.54;69.74;98276.28;1683411;84;21109;-70
2021/01/19 10:37:18;;;;;;;5.33;4.05;;;;;;;-3.51;69.34;98274.48;1693301;84;21184;-70
2021/01/19 10:40:09;;;;;;;7.80;4.78;;;;;;;-3.53;70.56;98271.14;1696318;83;21602;-70
2021/01/19 10:42:40;;;;;;;6.08;3.50;;;;;;;-3.50;70.69;98265.95;1648384;86;21121;-70
2021/01/19 10:45:10;;;;;;;5.97;4.87;;;;;;;-3.53;71.09;98263.52;1650196;85;21205;-70
2021/01/19 10:47:42;;;;;;;9.28;5.87;;;;;;;-3.39;70.10;98261.83;1648281;85;21192;-70
2021/01/19 10:50:17;;;;;;;7.10;5.30;;;;;;;-3.46;70.73;98257.36;1655797;85;21419;-70
2021/01/19 10:52:56;;;;;;;7.87;5.08;;;;;;;-3.31;70.13;98254.79;1612092;88;21228;-70
2021/01/19 10:55:25;;;;;;;9.03;4.17;;;;;;;-3.33;68.78;98253.16;1579528;88;21198;-69
2021/01/19 10:57:57;;;;;;;5.03;4.08;;;;;;;-3.14;68.50;98252.94;1582186;91;21195;-70
2021/01/19 11:00:27;;;;;;;8.18;3.60;;;;;;;-3.60;72.00;98251.91;1656038;85;21225;-70
2021/01/19 11:02:56;;;;;;;5.17;2.98;;;;;;;-3.38;70.41;98250.33;1655933;86;21218;-65
2021/01/19 11:05:26;;;;;;;12.00;6.47;;;;;;;-3.17;69.78;98247.53;1656014;85;21456;-70
2021/01/19 11:07:56;;;;;;;9.45;7.25;;;;;;;-3.28;70.03;98251.31;1655725;87;21536;-70
2021/01/19 11:10:26;;;;;;;6.35;2.92;;;;;;;-3.57;70.42;98249.27;1655703;85;21551;-70
2021/01/19 11:12:56;;;;;;;10.93;6.05;;;;;;;-3.46;70.81;98247.64;1655927;87;21222;-71
2021/01/19 11:15:26;;;;;;;9.33;4.95;;;;;;;-3.49;71.04;98245.22;1655705;87;21686;-70
2021/01/19 11:17:55;;;;;;;4.12;3.45;;;;;;;-3.50;70.61;98244.84;1684127;85;22369;-71
2021/01/19 11:20:23;;;;;;;10.05;5.53;;;;;;;-3.44;70.02;98236.58;1655863;85;21222;-71
2021/01/19 11:22:51;;;;;;;6.50;4.35;;;;;;;-3.74;71.08;98240.55;1655620;86;21178;-71
2021/01/19 11:25:20;;;;;;;6.10;3.52;;;;;;;-3.60;71.17;98235.84;1655764;85;21211;-72
2021/01/19 11:27:49;;;;;;;4.85;3.72;;;;;;;-3.64;71.01;98230.05;1655671;85;21174;-71
2021/01/19 11:30:19;;;;;;;12.98;3.15;;;;;;;-3.58;70.44;98231.10;1655715;85;21215;-71
2021/01/19 11:32:48;;;;;;;6.97;4.22;;;;;;;-3.58;71.09;98229.83;1655803;87;21207;-72
2021/01/19 11:35:17;;;;;;;7.58;4.95;;;;;;;-3.53;70.88;98226.72;1655858;87;21138;-71
2021/01/19 11:37:58;;;;;;;4.05;3.27;;;;;;;-3.74;71.19;98222.34;1699403;83;21307;-71
2021/01/19 11:40:26;;;;;;;6.17;5.35;;;;;;;-3.84;72.49;98213.34;1665824;85;21167;-70
2021/01/19 11:42:55;;;;;;;7.90;4.83;;;;;;;-3.84;72.43;98213.34;1638717;87;21182;-71
2021/01/19 11:45:24;;;;;;;8.60;4.17;;;;;;;-3.96;72.00;98208.66;1665700;85;21628;-72
2021/01/19 11:47:52;;;;;;;5.78;4.55;;;;;;;-3.87;71.95;98198.23;1665544;85;21638;-67
2021/01/19 11:50:21;;;;;;;7.42;4.97;;;;;;;-3.92;71.83;98198.80;1638508;87;21226;-65
2021/01/19 11:52:49;;;;;;;6.17;4.20;;;;;;;-3.85;71.67;98197.73;1681535;84;21273;-65
2021/01/19 11:55:17;;;;;;;7.80;4.70;;;;;;;-3.88;73.45;98185.14;1692595;84;21830;-65
2021/01/19 11:57:48;;;;;;;4.60;3.55;;;;;;;-4.05;73.12;98190.77;1664495;86;21587;-65
2021/01/19 12:00:36;;;;;;;5.67;2.17;;;;;;;-3.95;73.08;98192.56;1641064;86;21167;-65
2021/01/19 12:03:05;;;;;;;4.03;2.42;;;;;;;-3.78;72.53;98195.84;1604397;88;21350;-64